sensor_id;sensor_type;location;lat;lon;timestamp;P1;durP1;ratioP1;P2;durP2;ratioP2
30335;SDS011;17142;47.990;7.846;2022-10-17T00:01:57;8.70;;;1.90;;
30335;SDS011;17142;47.990;7.846;2022-10-17T00:04:22;3.87;;;2.80;;
30335;SDS011;17142;47.990;7.846;2022-10-17T00:06:50;2.53;;;2.17;;
30335;SDS011;17142;47.990;7.846;2022-10-17T00:09:16;5.33;;;2.30;;
30335;SDS011;17142;47.990;7.846;2022-10-17T00:11:41;2.47;;;2.00;;
30335;SDS011;17142;47.990;7.846;2022-10-17T00:14:09;4.23;;;2.20;;
30335;SDS011;17142;47.990;7.846;2022-10-17T00:16:37;4.13;;;2.30;;
30335;SDS011;17142;47.990;7.846;2022-10-17T00:19:05;4.80;;;2.37;;
30335;SDS011;17142;47.990;7.846;2022-10-17T00:21:31;6.40;;;2.57;;
30335;SDS011;17142;47.990;7.846;2022-10-17T00:23:58;4.27;;;2.70;;
30335;SDS011;17142;47.990;7.846;2022-10-17T00:26:26;4.00;;;2.57;;
30335;SDS011;17142;47.990;7.846;2022-10-17T00:28:55;7.53;;;2.10;;
30335;SDS011;17142;47.990;7.846;2022-10-17T00:31:21;2.20;;;2.00;;
30335;SDS011;17142;47.990;7.846;2022-10-17T00:33:48;2.87;;;2.60;;
30335;SDS011;17142;47.990;7.846;2022-10-17T00:38:48;5.97;;;3.00;;
30335;SDS011;17142;47.990;7.846;2022-10-17T00:41:17;4.20;;;2.30;;
30335;SDS011;17142;47.990;7.846;2022-10-17T00:47:00;5.97;;;2.13;;
30335;SDS011;17142;47.990;7.846;2022-10-17T00:49:33;2.57;;;2.17;;
30335;SDS011;17142;47.990;7.846;2022-10-17T00:52:10;3.93;;;2.37;;
30335;SDS011;17142;47.990;7.846;2022-10-17T00:54:41;3.07;;;2.00;;
30335;SDS011;17142;47.990;7.846;2022-10-17T00:57:10;3.93;;;2.83;;
30335;SDS011;17142;47.990;7.846;2022-10-17T00:59:36;3.30;;;2.00;;
30335;SDS011;17142;47.990;7.846;2022-10-17T01:02:14;3.10;;;2.50;;
30335;SDS011;17142;47.990;7.846;2022-10-17T01:04:42;4.13;;;2.43;;
30335;SDS011;17142;47.990;7.846;2022-10-17T01:07:10;6.70;;;3.37;;
30335;SDS011;17142;47.990;7.846;2022-10-17T01:09:39;2.70;;;2.47;;
30335;SDS011;17142;47.990;7.846;2022-10-17T01:22:57;3.93;;;1.93;;
30335;SDS011;17142;47.990;7.846;2022-10-17T01:28:44;4.40;;;2.47;;
30335;SDS011;17142;47.990;7.846;2022-10-17T01:31:15;5.90;;;2.63;;
30335;SDS011;17142;47.990;7.846;2022-10-17T01:33:47;2.47;;;1.90;;
30335;SDS011;17142;47.990;7.846;2022-10-17T01:39:39;4.70;;;2.10;;
30335;SDS011;17142;47.990;7.846;2022-10-17T01:44:50;5.50;;;2.30;;
30335;SDS011;17142;47.990;7.846;2022-10-17T01:47:29;7.00;;;2.30;;
30335;SDS011;17142;47.990;7.846;2022-10-17T01:49:58;3.50;;;2.10;;
30335;SDS011;17142;47.990;7.846;2022-10-17T01:52:43;5.90;;;2.00;;
30335;SDS011;17142;47.990;7.846;2022-10-17T01:55:19;3.50;;;2.70;;
30335;SDS011;17142;47.990;7.846;2022-10-17T01:57:51;3.33;;;2.50;;
30335;SDS011;17142;47.990;7.846;2022-10-17T02:00:22;2.77;;;1.80;;
30335;SDS011;17142;47.990;7.846;2022-10-17T02:02:57;6.70;;;2.90;;
30335;SDS011;17142;47.990;7.846;2022-10-17T02:05:26;4.70;;;2.63;;
30335;SDS011;17142;47.990;7.846;2022-10-17T02:07:56;4.30;;;2.47;;
30335;SDS011;17142;47.990;7.846;2022-10-17T02:10:29;4.50;;;2.10;;
30335;SDS011;17142;47.990;7.846;2022-10-17T02:13:10;3.47;;;2.47;;
30335;SDS011;17142;47.990;7.846;2022-10-17T02:21:02;6.73;;;2.60;;
30335;SDS011;17142;47.990;7.846;2022-10-17T02:26:18;6.13;;;2.53;;
30335;SDS011;17142;47.990;7.846;2022-10-17T02:29:07;3.93;;;2.43;;
30335;SDS011;17142;47.990;7.846;2022-10-17T02:34:20;2.10;;;1.77;;
30335;SDS011;17142;47.990;7.846;2022-10-17T02:36:51;6.97;;;2.47;;
30335;SDS011;17142;47.990;7.846;2022-10-17T02:39:20;3.27;;;2.10;;
30335;SDS011;17142;47.990;7.846;2022-10-17T02:41:50;4.53;;;1.97;;
30335;SDS011;17142;47.990;7.846;2022-10-17T02:44:18;8.93;;;2.83;;
30335;SDS011;17142;47.990;7.846;2022-10-17T02:46:47;4.97;;;2.30;;
30335;SDS011;17142;47.990;7.846;2022-10-17T02:49:24;3.20;;;2.37;;
30335;SDS011;17142;47.990;7.846;2022-10-17T02:54:30;3.33;;;2.30;;
30335;SDS011;17142;47.990;7.846;2022-10-17T02:57:00;6.73;;;2.90;;
30335;SDS011;17142;47.990;7.846;2022-10-17T02:59:32;3.03;;;2.73;;
30335;SDS011;17142;47.990;7.846;2022-10-17T03:02:04;4.10;;;2.17;;
30335;SDS011;17142;47.990;7.846;2022-10-17T03:04:30;5.10;;;2.60;;
30335;SDS011;17142;47.990;7.846;2022-10-17T03:06:56;4.47;;;2.60;;
30335;SDS011;17142;47.990;7.846;2022-10-17T03:09:22;3.90;;;2.20;;
30335;SDS011;17142;47.990;7.846;2022-10-17T03:11:48;4.33;;;2.30;;
30335;SDS011;17142;47.990;7.846;2022-10-17T03:14:13;4.13;;;2.20;;
30335;SDS011;17142;47.990;7.846;2022-10-17T03:16:41;5.20;;;2.33;;
30335;SDS011;17142;47.990;7.846;2022-10-17T03:19:09;4.03;;;2.37;;
30335;SDS011;17142;47.990;7.846;2022-10-17T03:21:35;2.93;;;2.63;;
30335;SDS011;17142;47.990;7.846;2022-10-17T03:24:02;6.87;;;3.60;;
30335;SDS011;17142;47.990;7.846;2022-10-17T03:26:28;4.63;;;2.10;;
30335;SDS011;17142;47.990;7.846;2022-10-17T03:28:54;2.80;;;2.50;;
30335;SDS011;17142;47.990;7.846;2022-10-17T03:31:22;4.20;;;2.23;;
30335;SDS011;17142;47.990;7.846;2022-10-17T03:33:50;3.63;;;3.03;;
30335;SDS011;17142;47.990;7.846;2022-10-17T03:36:20;10.87;;;3.47;;
30335;SDS011;17142;47.990;7.846;2022-10-17T03:38:48;4.07;;;2.80;;
30335;SDS011;17142;47.990;7.846;2022-10-17T03:41:19;2.50;;;2.00;;
30335;SDS011;17142;47.990;7.846;2022-10-17T03:43:45;4.90;;;2.60;;
30335;SDS011;17142;47.990;7.846;2022-10-17T03:46:10;6.63;;;2.27;;
30335;SDS011;17142;47.990;7.846;2022-10-17T03:48:38;3.23;;;2.50;;
30335;SDS011;17142;47.990;7.846;2022-10-17T03:51:05;3.93;;;2.37;;
30335;SDS011;17142;47.990;7.846;2022-10-17T03:53:34;4.50;;;2.50;;
30335;SDS011;17142;47.990;7.846;2022-10-17T03:58:38;5.73;;;2.87;;
30335;SDS011;17142;47.990;7.846;2022-10-17T04:01:05;4.60;;;2.30;;
30335;SDS011;17142;47.990;7.846;2022-10-17T04:03:31;5.23;;;2.70;;
30335;SDS011;17142;47.990;7.846;2022-10-17T04:06:00;4.17;;;2.30;;
30335;SDS011;17142;47.990;7.846;2022-10-17T04:08:28;3.83;;;2.73;;
30335;SDS011;17142;47.990;7.846;2022-10-17T04:10:57;4.83;;;2.43;;
30335;SDS011;17142;47.990;7.846;2022-10-17T04:13:24;4.47;;;3.30;;
30335;SDS011;17142;47.990;7.846;2022-10-17T04:15:53;8.23;;;3.03;;
30335;SDS011;17142;47.990;7.846;2022-10-17T04:18:24;3.63;;;2.67;;
30335;SDS011;17142;47.990;7.846;2022-10-17T04:20:52;6.13;;;2.43;;
30335;SDS011;17142;47.990;7.846;2022-10-17T04:23:20;3.63;;;2.37;;
30335;SDS011;17142;47.990;7.846;2022-10-17T04:25:46;3.53;;;2.13;;
30335;SDS011;17142;47.990;7.846;2022-10-17T04:28:14;2.87;;;2.57;;
30335;SDS011;17142;47.990;7.846;2022-10-17T04:30:40;8.30;;;3.43;;
30335;SDS011;17142;47.990;7.846;2022-10-17T04:33:05;4.07;;;2.83;;
30335;SDS011;17142;47.990;7.846;2022-10-17T04:35:31;5.53;;;2.70;;
30335;SDS011;17142;47.990;7.846;2022-10-17T04:37:59;2.70;;;2.43;;
30335;SDS011;17142;47.990;7.846;2022-10-17T04:40:25;4.47;;;2.67;;
30335;SDS011;17142;47.990;7.846;2022-10-17T04:42:50;3.20;;;2.80;;
30335;SDS011;17142;47.990;7.846;2022-10-17T04:45:18;4.83;;;2.97;;
30335;SDS011;17142;47.990;7.846;2022-10-17T04:47:46;3.90;;;3.03;;
30335;SDS011;17142;47.990;7.846;2022-10-17T04:50:12;8.93;;;3.23;;
30335;SDS011;17142;47.990;7.846;2022-10-17T04:52:40;3.37;;;3.07;;
30335;SDS011;17142;47.990;7.846;2022-10-17T04:55:08;6.60;;;3.30;;
30335;SDS011;17142;47.990;7.846;2022-10-17T04:57:34;7.63;;;2.93;;
30335;SDS011;17142;47.990;7.846;2022-10-17T05:00:02;7.03;;;4.27;;
30335;SDS011;17142;47.990;7.846;2022-10-17T05:02:33;4.50;;;2.60;;
30335;SDS011;17142;47.990;7.846;2022-10-17T05:04:59;6.70;;;2.63;;
30335;SDS011;17142;47.990;7.846;2022-10-17T05:07:24;3.83;;;2.80;;
30335;SDS011;17142;47.990;7.846;2022-10-17T05:09:52;3.13;;;2.27;;
30335;SDS011;17142;47.990;7.846;2022-10-17T05:12:17;2.70;;;2.33;;
30335;SDS011;17142;47.990;7.846;2022-10-17T05:14:43;6.43;;;3.40;;
30335;SDS011;17142;47.990;7.846;2022-10-17T05:17:08;3.10;;;2.63;;
30335;SDS011;17142;47.990;7.846;2022-10-17T05:19:34;4.93;;;4.43;;
30335;SDS011;17142;47.990;7.846;2022-10-17T05:22:02;9.40;;;3.20;;
30335;SDS011;17142;47.990;7.846;2022-10-17T05:24:28;8.50;;;3.00;;
30335;SDS011;17142;47.990;7.846;2022-10-17T05:26:53;4.53;;;2.60;;
30335;SDS011;17142;47.990;7.846;2022-10-17T05:29:21;4.27;;;2.30;;
30335;SDS011;17142;47.990;7.846;2022-10-17T05:31:49;4.30;;;2.40;;
30335;SDS011;17142;47.990;7.846;2022-10-17T05:34:15;7.43;;;2.47;;
30335;SDS011;17142;47.990;7.846;2022-10-17T05:36:43;5.50;;;2.53;;
30335;SDS011;17142;47.990;7.846;2022-10-17T05:39:10;3.70;;;2.70;;
30335;SDS011;17142;47.990;7.846;2022-10-17T05:41:39;2.70;;;2.40;;
30335;SDS011;17142;47.990;7.846;2022-10-17T05:44:09;6.40;;;2.60;;
30335;SDS011;17142;47.990;7.846;2022-10-17T05:46:35;5.03;;;2.50;;
30335;SDS011;17142;47.990;7.846;2022-10-17T05:49:01;33.50;;;5.03;;
30335;SDS011;17142;47.990;7.846;2022-10-17T05:51:26;8.70;;;2.80;;
30335;SDS011;17142;47.990;7.846;2022-10-17T05:53:52;5.23;;;3.27;;
30335;SDS011;17142;47.990;7.846;2022-10-17T05:56:17;10.93;;;5.50;;
30335;SDS011;17142;47.990;7.846;2022-10-17T05:58:46;5.30;;;2.60;;
30335;SDS011;17142;47.990;7.846;2022-10-17T06:01:13;5.23;;;2.73;;
30335;SDS011;17142;47.990;7.846;2022-10-17T06:03:38;7.10;;;3.47;;
30335;SDS011;17142;47.990;7.846;2022-10-17T06:06:09;5.83;;;2.40;;
30335;SDS011;17142;47.990;7.846;2022-10-17T06:08:36;4.60;;;2.83;;
30335;SDS011;17142;47.990;7.846;2022-10-17T06:11:02;6.13;;;4.73;;
30335;SDS011;17142;47.990;7.846;2022-10-17T06:13:28;4.00;;;2.03;;
30335;SDS011;17142;47.990;7.846;2022-10-17T06:15:54;4.63;;;2.50;;
30335;SDS011;17142;47.990;7.846;2022-10-17T06:18:19;5.03;;;3.73;;
30335;SDS011;17142;47.990;7.846;2022-10-17T06:20:45;9.47;;;3.77;;
30335;SDS011;17142;47.990;7.846;2022-10-17T06:23:11;4.83;;;3.07;;
30335;SDS011;17142;47.990;7.846;2022-10-17T06:25:41;4.17;;;2.57;;
30335;SDS011;17142;47.990;7.846;2022-10-17T06:28:07;2.33;;;2.13;;
30335;SDS011;17142;47.990;7.846;2022-10-17T06:30:37;4.50;;;3.17;;
30335;SDS011;17142;47.990;7.846;2022-10-17T06:33:04;5.00;;;3.50;;
30335;SDS011;17142;47.990;7.846;2022-10-17T06:35:30;5.27;;;3.77;;
30335;SDS011;17142;47.990;7.846;2022-10-17T06:37:58;5.67;;;3.40;;
30335;SDS011;17142;47.990;7.846;2022-10-17T06:40:27;13.70;;;4.00;;
30335;SDS011;17142;47.990;7.846;2022-10-17T06:42:55;8.43;;;2.80;;
30335;SDS011;17142;47.990;7.846;2022-10-17T06:45:23;3.90;;;2.90;;
30335;SDS011;17142;47.990;7.846;2022-10-17T06:47:48;4.20;;;3.13;;
30335;SDS011;17142;47.990;7.846;2022-10-17T06:50:17;5.53;;;3.00;;
30335;SDS011;17142;47.990;7.846;2022-10-17T06:52:42;5.67;;;2.47;;
30335;SDS011;17142;47.990;7.846;2022-10-17T06:55:08;7.20;;;2.37;;
30335;SDS011;17142;47.990;7.846;2022-10-17T06:57:33;5.07;;;2.20;;
30335;SDS011;17142;47.990;7.846;2022-10-17T06:59:59;3.10;;;1.97;;
30335;SDS011;17142;47.990;7.846;2022-10-17T07:02:25;6.97;;;2.60;;
30335;SDS011;17142;47.990;7.846;2022-10-17T07:04:51;5.00;;;2.87;;
30335;SDS011;17142;47.990;7.846;2022-10-17T07:07:16;3.67;;;2.43;;
30335;SDS011;17142;47.990;7.846;2022-10-17T07:09:43;4.37;;;2.57;;
30335;SDS011;17142;47.990;7.846;2022-10-17T07:12:10;9.20;;;2.90;;
30335;SDS011;17142;47.990;7.846;2022-10-17T07:14:38;6.00;;;2.53;;
30335;SDS011;17142;47.990;7.846;2022-10-17T07:17:08;6.33;;;3.50;;
30335;SDS011;17142;47.990;7.846;2022-10-17T07:19:37;5.10;;;2.30;;
30335;SDS011;17142;47.990;7.846;2022-10-17T07:22:02;4.90;;;2.57;;
30335;SDS011;17142;47.990;7.846;2022-10-17T07:24:28;2.47;;;2.27;;
30335;SDS011;17142;47.990;7.846;2022-10-17T07:26:54;5.30;;;1.93;;
30335;SDS011;17142;47.990;7.846;2022-10-17T07:29:22;6.13;;;2.90;;
30335;SDS011;17142;47.990;7.846;2022-10-17T07:31:47;6.80;;;2.77;;
30335;SDS011;17142;47.990;7.846;2022-10-17T07:34:13;5.40;;;2.53;;
30335;SDS011;17142;47.990;7.846;2022-10-17T07:36:39;2.50;;;1.93;;
30335;SDS011;17142;47.990;7.846;2022-10-17T07:39:05;4.37;;;3.03;;
30335;SDS011;17142;47.990;7.846;2022-10-17T07:41:30;3.00;;;2.40;;
30335;SDS011;17142;47.990;7.846;2022-10-17T07:43:56;3.63;;;1.90;;
30335;SDS011;17142;47.990;7.846;2022-10-17T07:46:22;5.47;;;2.10;;
30335;SDS011;17142;47.990;7.846;2022-10-17T07:48:47;3.40;;;2.40;;
30335;SDS011;17142;47.990;7.846;2022-10-17T07:51:13;3.33;;;2.30;;
30335;SDS011;17142;47.990;7.846;2022-10-17T07:53:39;3.27;;;1.83;;
30335;SDS011;17142;47.990;7.846;2022-10-17T07:56:08;4.33;;;2.17;;
30335;SDS011;17142;47.990;7.846;2022-10-17T07:58:35;7.43;;;1.93;;
30335;SDS011;17142;47.990;7.846;2022-10-17T08:01:05;3.40;;;2.83;;
30335;SDS011;17142;47.990;7.846;2022-10-17T08:03:32;5.60;;;1.87;;
30335;SDS011;17142;47.990;7.846;2022-10-17T08:06:02;8.13;;;2.50;;
30335;SDS011;17142;47.990;7.846;2022-10-17T08:08:28;1.80;;;1.70;;
30335;SDS011;17142;47.990;7.846;2022-10-17T08:11:00;2.70;;;2.50;;
30335;SDS011;17142;47.990;7.846;2022-10-17T08:13:30;2.17;;;1.87;;
30335;SDS011;17142;47.990;7.846;2022-10-17T08:15:59;3.13;;;1.80;;
30335;SDS011;17142;47.990;7.846;2022-10-17T08:18:26;5.50;;;1.97;;
30335;SDS011;17142;47.990;7.846;2022-10-17T08:20:51;2.93;;;1.90;;
30335;SDS011;17142;47.990;7.846;2022-10-17T08:23:17;2.23;;;1.90;;
30335;SDS011;17142;47.990;7.846;2022-10-17T08:25:45;4.50;;;1.80;;
30335;SDS011;17142;47.990;7.846;2022-10-17T08:28:13;2.50;;;1.80;;
30335;SDS011;17142;47.990;7.846;2022-10-17T08:30:38;2.13;;;1.50;;
30335;SDS011;17142;47.990;7.846;2022-10-17T08:33:06;6.50;;;2.13;;
30335;SDS011;17142;47.990;7.846;2022-10-17T08:35:31;2.83;;;2.13;;
30335;SDS011;17142;47.990;7.846;2022-10-17T08:37:57;2.77;;;1.80;;
30335;SDS011;17142;47.990;7.846;2022-10-17T08:40:26;2.20;;;1.33;;
30335;SDS011;17142;47.990;7.846;2022-10-17T08:45:53;3.97;;;1.83;;
30335;SDS011;17142;47.990;7.846;2022-10-17T08:48:24;2.20;;;1.43;;
30335;SDS011;17142;47.990;7.846;2022-10-17T08:55:56;2.07;;;1.50;;
30335;SDS011;17142;47.990;7.846;2022-10-17T08:58:26;7.27;;;1.50;;
30335;SDS011;17142;47.990;7.846;2022-10-17T09:01:00;1.97;;;1.77;;
30335;SDS011;17142;47.990;7.846;2022-10-17T09:06:24;2.40;;;1.57;;
30335;SDS011;17142;47.990;7.846;2022-10-17T09:20:25;4.30;;;2.50;;
30335;SDS011;17142;47.990;7.846;2022-10-17T09:22:56;8.93;;;3.00;;
30335;SDS011;17142;47.990;7.846;2022-10-17T09:25:34;3.07;;;1.90;;
30335;SDS011;17142;47.990;7.846;2022-10-17T09:33:33;4.63;;;2.57;;
30335;SDS011;17142;47.990;7.846;2022-10-17T09:36:07;6.77;;;3.17;;
30335;SDS011;17142;47.990;7.846;2022-10-17T09:39:01;3.67;;;2.83;;
30335;SDS011;17142;47.990;7.846;2022-10-17T09:41:40;5.33;;;2.87;;
30335;SDS011;17142;47.990;7.846;2022-10-17T09:49:43;5.90;;;2.33;;
30335;SDS011;17142;47.990;7.846;2022-10-17T09:52:16;3.93;;;2.20;;
30335;SDS011;17142;47.990;7.846;2022-10-17T09:54:49;17.57;;;2.70;;
30335;SDS011;17142;47.990;7.846;2022-10-17T09:57:17;6.27;;;2.90;;
30335;SDS011;17142;47.990;7.846;2022-10-17T09:59:55;10.83;;;3.17;;
30335;SDS011;17142;47.990;7.846;2022-10-17T10:02:21;6.43;;;3.07;;
30335;SDS011;17142;47.990;7.846;2022-10-17T10:08:02;6.00;;;2.33;;
30335;SDS011;17142;47.990;7.846;2022-10-17T10:10:48;5.40;;;2.50;;
30335;SDS011;17142;47.990;7.846;2022-10-17T10:13:24;3.47;;;2.10;;
30335;SDS011;17142;47.990;7.846;2022-10-17T10:15:51;4.70;;;2.70;;
30335;SDS011;17142;47.990;7.846;2022-10-17T10:21:06;2.80;;;2.10;;
30335;SDS011;17142;47.990;7.846;2022-10-17T10:23:32;3.97;;;2.83;;
30335;SDS011;17142;47.990;7.846;2022-10-17T10:26:10;6.60;;;2.87;;
30335;SDS011;17142;47.990;7.846;2022-10-17T10:28:58;4.50;;;3.07;;
30335;SDS011;17142;47.990;7.846;2022-10-17T10:31:31;7.40;;;2.80;;
30335;SDS011;17142;47.990;7.846;2022-10-17T10:34:10;3.83;;;2.37;;
30335;SDS011;17142;47.990;7.846;2022-10-17T10:36:53;4.33;;;1.90;;
30335;SDS011;17142;47.990;7.846;2022-10-17T10:42:04;4.83;;;2.63;;
30335;SDS011;17142;47.990;7.846;2022-10-17T10:44:35;3.67;;;1.90;;
30335;SDS011;17142;47.990;7.846;2022-10-17T10:47:06;4.77;;;2.47;;
30335;SDS011;17142;47.990;7.846;2022-10-17T10:49:41;9.40;;;2.57;;
30335;SDS011;17142;47.990;7.846;2022-10-17T10:52:15;6.63;;;2.50;;
30335;SDS011;17142;47.990;7.846;2022-10-17T10:55:25;3.50;;;2.00;;
30335;SDS011;17142;47.990;7.846;2022-10-17T10:57:58;4.90;;;2.27;;
30335;SDS011;17142;47.990;7.846;2022-10-17T11:00:27;4.43;;;2.23;;
30335;SDS011;17142;47.990;7.846;2022-10-17T11:05:47;5.23;;;2.90;;
30335;SDS011;17142;47.990;7.846;2022-10-17T11:08:34;5.60;;;2.93;;
30335;SDS011;17142;47.990;7.846;2022-10-17T11:13:57;2.93;;;1.87;;
30335;SDS011;17142;47.990;7.846;2022-10-17T11:22:08;2.17;;;1.20;;
30335;SDS011;17142;47.990;7.846;2022-10-17T11:24:57;2.43;;;1.73;;
30335;SDS011;17142;47.990;7.846;2022-10-17T11:27:28;3.20;;;1.80;;
30335;SDS011;17142;47.990;7.846;2022-10-17T11:29:54;2.70;;;1.97;;
30335;SDS011;17142;47.990;7.846;2022-10-17T11:32:35;2.07;;;1.57;;
30335;SDS011;17142;47.990;7.846;2022-10-17T11:35:48;3.73;;;1.50;;
30335;SDS011;17142;47.990;7.846;2022-10-17T11:38:23;1.93;;;1.53;;
30335;SDS011;17142;47.990;7.846;2022-10-17T11:40:52;2.60;;;1.20;;
30335;SDS011;17142;47.990;7.846;2022-10-17T11:43:25;2.00;;;1.30;;
30335;SDS011;17142;47.990;7.846;2022-10-17T11:46:05;3.13;;;1.60;;
30335;SDS011;17142;47.990;7.846;2022-10-17T11:48:46;2.07;;;1.43;;
30335;SDS011;17142;47.990;7.846;2022-10-17T11:51:30;2.47;;;1.30;;
30335;SDS011;17142;47.990;7.846;2022-10-17T11:54:12;1.30;;;1.20;;
30335;SDS011;17142;47.990;7.846;2022-10-17T11:57:02;1.83;;;1.07;;
30335;SDS011;17142;47.990;7.846;2022-10-17T11:59:44;2.43;;;1.40;;
30335;SDS011;17142;47.990;7.846;2022-10-17T12:02:16;1.70;;;1.30;;
30335;SDS011;17142;47.990;7.846;2022-10-17T12:05:03;5.17;;;2.03;;
30335;SDS011;17142;47.990;7.846;2022-10-17T12:07:51;3.43;;;1.67;;
30335;SDS011;17142;47.990;7.846;2022-10-17T12:10:33;2.10;;;1.33;;
30335;SDS011;17142;47.990;7.846;2022-10-17T12:15:51;2.90;;;1.37;;
30335;SDS011;17142;47.990;7.846;2022-10-17T12:18:18;2.53;;;1.50;;
30335;SDS011;17142;47.990;7.846;2022-10-17T12:20:54;2.23;;;1.80;;
30335;SDS011;17142;47.990;7.846;2022-10-17T12:23:25;6.30;;;1.77;;
30335;SDS011;17142;47.990;7.846;2022-10-17T12:25:57;4.30;;;1.30;;
30335;SDS011;17142;47.990;7.846;2022-10-17T12:28:31;4.27;;;1.57;;
30335;SDS011;17142;47.990;7.846;2022-10-17T12:33:55;1.73;;;1.10;;
30335;SDS011;17142;47.990;7.846;2022-10-17T13:03:02;1.47;;;1.37;;
30335;SDS011;17142;47.990;7.846;2022-10-17T13:05:35;2.00;;;1.70;;
30335;SDS011;17142;47.990;7.846;2022-10-17T13:08:03;3.30;;;1.30;;
30335;SDS011;17142;47.990;7.846;2022-10-17T13:10:36;1.57;;;1.20;;
30335;SDS011;17142;47.990;7.846;2022-10-17T13:15:58;1.80;;;1.30;;
30335;SDS011;17142;47.990;7.846;2022-10-17T13:18:25;2.13;;;1.40;;
30335;SDS011;17142;47.990;7.846;2022-10-17T13:21:04;1.83;;;1.20;;
30335;SDS011;17142;47.990;7.846;2022-10-17T13:23:32;2.83;;;1.50;;
30335;SDS011;17142;47.990;7.846;2022-10-17T13:28:39;1.80;;;1.20;;
30335;SDS011;17142;47.990;7.846;2022-10-17T13:31:06;2.00;;;1.60;;
30335;SDS011;17142;47.990;7.846;2022-10-17T13:33:46;3.93;;;1.33;;
30335;SDS011;17142;47.990;7.846;2022-10-17T13:36:13;4.47;;;2.20;;
30335;SDS011;17142;47.990;7.846;2022-10-17T13:38:43;2.00;;;1.63;;
30335;SDS011;17142;47.990;7.846;2022-10-17T13:41:12;1.63;;;1.33;;
30335;SDS011;17142;47.990;7.846;2022-10-17T13:43:40;3.00;;;1.50;;
30335;SDS011;17142;47.990;7.846;2022-10-17T13:46:11;2.00;;;1.40;;
30335;SDS011;17142;47.990;7.846;2022-10-17T13:48:47;4.40;;;1.70;;
30335;SDS011;17142;47.990;7.846;2022-10-17T13:51:13;5.30;;;2.07;;
30335;SDS011;17142;47.990;7.846;2022-10-17T13:53:39;2.17;;;1.90;;
30335;SDS011;17142;47.990;7.846;2022-10-17T13:56:26;1.60;;;1.47;;
30335;SDS011;17142;47.990;7.846;2022-10-17T13:58:55;1.73;;;1.20;;
30335;SDS011;17142;47.990;7.846;2022-10-17T14:01:24;2.47;;;1.50;;
30335;SDS011;17142;47.990;7.846;2022-10-17T14:03:51;2.30;;;1.70;;
30335;SDS011;17142;47.990;7.846;2022-10-17T14:06:22;4.20;;;1.50;;
30335;SDS011;17142;47.990;7.846;2022-10-17T14:11:29;1.57;;;1.43;;
30335;SDS011;17142;47.990;7.846;2022-10-17T14:14:00;1.10;;;1.10;;
30335;SDS011;17142;47.990;7.846;2022-10-17T14:16:38;3.07;;;1.60;;
30335;SDS011;17142;47.990;7.846;2022-10-17T14:19:19;1.87;;;0.97;;
30335;SDS011;17142;47.990;7.846;2022-10-17T14:21:47;2.90;;;1.80;;
30335;SDS011;17142;47.990;7.846;2022-10-17T14:26:50;4.03;;;1.60;;
30335;SDS011;17142;47.990;7.846;2022-10-17T14:29:24;2.70;;;1.57;;
30335;SDS011;17142;47.990;7.846;2022-10-17T14:32:04;1.97;;;1.40;;
30335;SDS011;17142;47.990;7.846;2022-10-17T14:34:35;1.93;;;1.03;;
30335;SDS011;17142;47.990;7.846;2022-10-17T14:37:10;1.47;;;1.37;;
30335;SDS011;17142;47.990;7.846;2022-10-17T14:40:05;4.03;;;1.60;;
30335;SDS011;17142;47.990;7.846;2022-10-17T14:42:31;1.60;;;1.10;;
30335;SDS011;17142;47.990;7.846;2022-10-17T14:45:06;3.30;;;1.00;;
30335;SDS011;17142;47.990;7.846;2022-10-17T14:47:36;2.23;;;1.27;;
30335;SDS011;17142;47.990;7.846;2022-10-17T14:50:06;1.60;;;1.50;;
30335;SDS011;17142;47.990;7.846;2022-10-17T14:53:04;2.00;;;1.50;;
30335;SDS011;17142;47.990;7.846;2022-10-17T14:55:31;4.83;;;1.70;;
30335;SDS011;17142;47.990;7.846;2022-10-17T14:57:59;2.20;;;1.60;;
30335;SDS011;17142;47.990;7.846;2022-10-17T15:00:25;1.77;;;1.30;;
30335;SDS011;17142;47.990;7.846;2022-10-17T15:02:55;1.90;;;1.00;;
30335;SDS011;17142;47.990;7.846;2022-10-17T15:05:21;2.03;;;1.33;;
30335;SDS011;17142;47.990;7.846;2022-10-17T15:07:47;2.70;;;1.40;;
30335;SDS011;17142;47.990;7.846;2022-10-17T15:10:23;2.83;;;2.00;;
30335;SDS011;17142;47.990;7.846;2022-10-17T15:12:49;2.80;;;1.40;;
30335;SDS011;17142;47.990;7.846;2022-10-17T15:15:16;1.70;;;1.33;;
30335;SDS011;17142;47.990;7.846;2022-10-17T15:17:42;2.00;;;1.43;;
30335;SDS011;17142;47.990;7.846;2022-10-17T15:20:13;5.30;;;1.50;;
30335;SDS011;17142;47.990;7.846;2022-10-17T15:22:44;1.27;;;1.17;;
30335;SDS011;17142;47.990;7.846;2022-10-17T15:25:09;1.93;;;1.20;;
30335;SDS011;17142;47.990;7.846;2022-10-17T15:27:35;3.90;;;1.97;;
30335;SDS011;17142;47.990;7.846;2022-10-17T15:30:01;2.57;;;2.37;;
30335;SDS011;17142;47.990;7.846;2022-10-17T15:32:29;1.20;;;1.03;;
30335;SDS011;17142;47.990;7.846;2022-10-17T15:34:57;2.83;;;1.43;;
30335;SDS011;17142;47.990;7.846;2022-10-17T15:37:23;2.43;;;2.23;;
30335;SDS011;17142;47.990;7.846;2022-10-17T15:39:51;3.30;;;2.13;;
30335;SDS011;17142;47.990;7.846;2022-10-17T15:42:18;2.87;;;1.60;;
30335;SDS011;17142;47.990;7.846;2022-10-17T15:44:50;1.70;;;1.53;;
30335;SDS011;17142;47.990;7.846;2022-10-17T15:47:26;1.87;;;1.67;;
30335;SDS011;17142;47.990;7.846;2022-10-17T15:49:55;1.43;;;1.33;;
30335;SDS011;17142;47.990;7.846;2022-10-17T15:52:26;1.97;;;1.63;;
30335;SDS011;17142;47.990;7.846;2022-10-17T15:54:52;3.70;;;1.20;;
30335;SDS011;17142;47.990;7.846;2022-10-17T15:57:28;1.40;;;1.20;;
30335;SDS011;17142;47.990;7.846;2022-10-17T15:59:58;2.53;;;1.30;;
30335;SDS011;17142;47.990;7.846;2022-10-17T16:02:24;2.87;;;1.33;;
30335;SDS011;17142;47.990;7.846;2022-10-17T16:04:50;2.60;;;1.93;;
30335;SDS011;17142;47.990;7.846;2022-10-17T16:07:16;5.00;;;2.43;;
30335;SDS011;17142;47.990;7.846;2022-10-17T16:09:43;2.43;;;1.80;;
30335;SDS011;17142;47.990;7.846;2022-10-17T16:12:12;3.30;;;2.77;;
30335;SDS011;17142;47.990;7.846;2022-10-17T16:14:46;3.00;;;2.17;;
30335;SDS011;17142;47.990;7.846;2022-10-17T16:17:12;3.20;;;1.93;;
30335;SDS011;17142;47.990;7.846;2022-10-17T16:19:41;2.53;;;1.73;;
30335;SDS011;17142;47.990;7.846;2022-10-17T16:22:10;1.90;;;1.50;;
30335;SDS011;17142;47.990;7.846;2022-10-17T16:24:48;1.27;;;1.00;;
30335;SDS011;17142;47.990;7.846;2022-10-17T16:27:14;2.90;;;1.60;;
30335;SDS011;17142;47.990;7.846;2022-10-17T16:29:40;3.30;;;1.60;;
30335;SDS011;17142;47.990;7.846;2022-10-17T16:32:08;3.47;;;1.53;;
30335;SDS011;17142;47.990;7.846;2022-10-17T16:34:34;5.63;;;1.80;;
30335;SDS011;17142;47.990;7.846;2022-10-17T16:37:00;4.77;;;2.00;;
30335;SDS011;17142;47.990;7.846;2022-10-17T16:39:25;3.40;;;2.00;;
30335;SDS011;17142;47.990;7.846;2022-10-17T16:41:51;1.93;;;1.50;;
30335;SDS011;17142;47.990;7.846;2022-10-17T16:44:16;2.10;;;1.83;;
30335;SDS011;17142;47.990;7.846;2022-10-17T16:46:42;3.60;;;1.80;;
30335;SDS011;17142;47.990;7.846;2022-10-17T16:49:08;1.97;;;1.73;;
30335;SDS011;17142;47.990;7.846;2022-10-17T16:51:34;6.10;;;2.03;;
30335;SDS011;17142;47.990;7.846;2022-10-17T16:54:04;9.87;;;3.50;;
30335;SDS011;17142;47.990;7.846;2022-10-17T16:56:32;3.50;;;2.10;;
30335;SDS011;17142;47.990;7.846;2022-10-17T16:58:58;7.40;;;2.27;;
30335;SDS011;17142;47.990;7.846;2022-10-17T17:01:24;2.80;;;1.67;;
30335;SDS011;17142;47.990;7.846;2022-10-17T17:03:51;4.53;;;2.03;;
30335;SDS011;17142;47.990;7.846;2022-10-17T17:06:18;1.73;;;1.63;;
30335;SDS011;17142;47.990;7.846;2022-10-17T17:08:46;3.70;;;2.00;;
30335;SDS011;17142;47.990;7.846;2022-10-17T17:11:15;3.47;;;2.17;;
30335;SDS011;17142;47.990;7.846;2022-10-17T17:13:44;5.23;;;2.10;;
30335;SDS011;17142;47.990;7.846;2022-10-17T17:16:11;3.87;;;2.27;;
30335;SDS011;17142;47.990;7.846;2022-10-17T17:18:41;2.03;;;1.83;;
30335;SDS011;17142;47.990;7.846;2022-10-17T17:21:09;5.50;;;2.73;;
30335;SDS011;17142;47.990;7.846;2022-10-17T17:23:36;4.27;;;2.40;;